<?xml version="1.0" encoding="utf-8"?>
<gpx xmlns:xsi="http://www.w3.org/2001/XMLSchema-instance" xmlns:xsd="http://www.w3.org/2001/XMLSchema" version="1.1" creator="Shapelink.com" xmlns="http://www.topografix.com/GPX/1/1" xmlns:gpxtpx="http://www.garmin.com/xmlschemas/TrackPointExtension/v1">
  <metadata>
    <name>Övrigt 3.17 km, 2019-07-28</name>
    <desc></desc>
    <author><name>Marian Moron</name></author> 
    <time>2019-07-28T16:52:41Z</time>
  </metadata>
  <trk>
    <name>Övrigt 3.17 km, 2019-07-28</name>
    <trkseg>
      <trkpt lat="54.347724196969" lon="18.656529830945">
        <ele>17.4</ele>
        <time>2019-07-28T16:52:41Z</time>
      </trkpt>
      <trkpt lat="54.347651358258" lon="18.656424470462">
        <ele>8.6</ele>
        <time>2019-07-28T16:52:54Z</time>
      </trkpt>
      <trkpt lat="54.347674492302" lon="18.65658054144">
        <ele>5.4</ele>
        <time>2019-07-28T16:53:34Z</time>
      </trkpt>
      <trkpt lat="54.347685724048" lon="18.656473420758">
        <ele>2.4</ele>
        <time>2019-07-28T17:04:44Z</time>
      </trkpt>
      <trkpt lat="54.347741044588" lon="18.656244594888">
        <ele>3.6</ele>
        <time>2019-07-28T17:05:02Z</time>
      </trkpt>
      <trkpt lat="54.347767196116" lon="18.656103108416">
        <ele>3.2</ele>
        <time>2019-07-28T17:05:14Z</time>
      </trkpt>
      <trkpt lat="54.347764597727" lon="18.656077711259">
        <ele>2.8</ele>
        <time>2019-07-28T17:05:16Z</time>
      </trkpt>
      <trkpt lat="54.347779768966" lon="18.655992383517">
        <ele>3.4</ele>
        <time>2019-07-28T17:05:22Z</time>
      </trkpt>
      <trkpt lat="54.348003398058" lon="18.656062456201">
        <ele>11.2</ele>
        <time>2019-07-28T17:07:07Z</time>
      </trkpt>
      <trkpt lat="54.348020497134" lon="18.656129679039">
        <ele>17</ele>
        <time>2019-07-28T17:11:00Z</time>
      </trkpt>
      <trkpt lat="54.348138598105" lon="18.656167984322">
        <ele>10.8</ele>
        <time>2019-07-28T17:11:20Z</time>
      </trkpt>
      <trkpt lat="54.34810129865" lon="18.656277032841">
        <ele>22</ele>
        <time>2019-07-28T17:11:26Z</time>
      </trkpt>
      <trkpt lat="54.348088641981" lon="18.656524634167">
        <ele>66.6</ele>
        <time>2019-07-28T17:15:38Z</time>
      </trkpt>
      <trkpt lat="54.348098029709" lon="18.656561598346">
        <ele>58.4</ele>
        <time>2019-07-28T17:16:33Z</time>
      </trkpt>
      <trkpt lat="54.34812812073" lon="18.656588336607">
        <ele>57.6</ele>
        <time>2019-07-28T17:16:38Z</time>
      </trkpt>
      <trkpt lat="54.348159469036" lon="18.656628737365">
        <ele>57.4</ele>
        <time>2019-07-28T17:16:42Z</time>
      </trkpt>
      <trkpt lat="54.348223171476" lon="18.656621109836">
        <ele>54.2</ele>
        <time>2019-07-28T17:16:48Z</time>
      </trkpt>
      <trkpt lat="54.348719547594" lon="18.656588755702">
        <ele>12.8</ele>
        <time>2019-07-28T17:17:36Z</time>
      </trkpt>
      <trkpt lat="54.348831194502" lon="18.656599316896">
        <ele>7.8</ele>
        <time>2019-07-28T17:17:48Z</time>
      </trkpt>
      <trkpt lat="54.348954073156" lon="18.656651619952">
        <ele>0</ele>
        <time>2019-07-28T17:18:04Z</time>
      </trkpt>
      <trkpt lat="54.349061110019" lon="18.656680118412">
        <ele>0</ele>
        <time>2019-07-28T17:18:20Z</time>
      </trkpt>
      <trkpt lat="54.349132859083" lon="18.656654637436">
        <ele>0</ele>
        <time>2019-07-28T17:18:30Z</time>
      </trkpt>
      <trkpt lat="54.349292282821" lon="18.656702498085">
        <ele>0</ele>
        <time>2019-07-28T17:19:13Z</time>
      </trkpt>
      <trkpt lat="54.349324553136" lon="18.656715657668">
        <ele>0</ele>
        <time>2019-07-28T17:19:17Z</time>
      </trkpt>
      <trkpt lat="54.349596461972" lon="18.656986309219">
        <ele>0</ele>
        <time>2019-07-28T17:20:27Z</time>
      </trkpt>
      <trkpt lat="54.349960739346" lon="18.657274478941">
        <ele>0</ele>
        <time>2019-07-28T17:22:03Z</time>
      </trkpt>
      <trkpt lat="54.350003906131" lon="18.657292835302">
        <ele>0</ele>
        <time>2019-07-28T17:22:10Z</time>
      </trkpt>
      <trkpt lat="54.350049671305" lon="18.657309682921">
        <ele>0</ele>
        <time>2019-07-28T17:22:17Z</time>
      </trkpt>
      <trkpt lat="54.350137429798" lon="18.657363913814">
        <ele>0</ele>
        <time>2019-07-28T17:22:55Z</time>
      </trkpt>
      <trkpt lat="54.350286208523" lon="18.657456198533">
        <ele>1.4</ele>
        <time>2019-07-28T17:23:43Z</time>
      </trkpt>
      <trkpt lat="54.350625004921" lon="18.657606402181">
        <ele>0</ele>
        <time>2019-07-28T17:26:09Z</time>
      </trkpt>
      <trkpt lat="54.350699268555" lon="18.657645378016">
        <ele>0</ele>
        <time>2019-07-28T17:26:30Z</time>
      </trkpt>
      <trkpt lat="54.350858692293" lon="18.657591147123">
        <ele>0</ele>
        <time>2019-07-28T17:27:02Z</time>
      </trkpt>
      <trkpt lat="54.351121129582" lon="18.657827851979">
        <ele>8</ele>
        <time>2019-07-28T17:28:36Z</time>
      </trkpt>
      <trkpt lat="54.351179886701" lon="18.657861128122">
        <ele>14</ele>
        <time>2019-07-28T17:28:45Z</time>
      </trkpt>
      <trkpt lat="54.351256497267" lon="18.657933631557">
        <ele>16.6</ele>
        <time>2019-07-28T17:29:02Z</time>
      </trkpt>
      <trkpt lat="54.35137778336" lon="18.657938828335">
        <ele>6.4</ele>
        <time>2019-07-28T17:29:26Z</time>
      </trkpt>
      <trkpt lat="54.35147920435" lon="18.657883340157">
        <ele>0</ele>
        <time>2019-07-28T17:29:44Z</time>
      </trkpt>
      <trkpt lat="54.351906932707" lon="18.657919214689">
        <ele>0</ele>
        <time>2019-07-28T17:31:05Z</time>
      </trkpt>
      <trkpt lat="54.351976083382" lon="18.657927345132">
        <ele>0</ele>
        <time>2019-07-28T17:31:18Z</time>
      </trkpt>
      <trkpt lat="54.352189318918" lon="18.657670523716">
        <ele>0</ele>
        <time>2019-07-28T17:33:06Z</time>
      </trkpt>
      <trkpt lat="54.352202478501" lon="18.657136931962">
        <ele>0</ele>
        <time>2019-07-28T17:34:30Z</time>
      </trkpt>
      <trkpt lat="54.352198036094" lon="18.657054705523">
        <ele>0.6</ele>
        <time>2019-07-28T17:35:25Z</time>
      </trkpt>
      <trkpt lat="54.352223097975" lon="18.656368144094">
        <ele>0</ele>
        <time>2019-07-28T17:37:31Z</time>
      </trkpt>
      <trkpt lat="54.352364500628" lon="18.655893393278">
        <ele>1.8</ele>
        <time>2019-07-28T17:38:46Z</time>
      </trkpt>
      <trkpt lat="54.352387550853" lon="18.655653000386">
        <ele>1.8</ele>
        <time>2019-07-28T17:39:12Z</time>
      </trkpt>
      <trkpt lat="54.352443877221" lon="18.654936264117">
        <ele>0</ele>
        <time>2019-07-28T17:41:09Z</time>
      </trkpt>
      <trkpt lat="54.352452845854" lon="18.654597300081">
        <ele>0</ele>
        <time>2019-07-28T17:42:04Z</time>
      </trkpt>
      <trkpt lat="54.352500622684" lon="18.654452963763">
        <ele>2.8</ele>
        <time>2019-07-28T17:42:23Z</time>
      </trkpt>
      <trkpt lat="54.352524343461" lon="18.654278368786">
        <ele>4.8</ele>
        <time>2019-07-28T17:42:38Z</time>
      </trkpt>
      <trkpt lat="54.352555188853" lon="18.65352617708">
        <ele>2.6</ele>
        <time>2019-07-28T17:43:59Z</time>
      </trkpt>
      <trkpt lat="54.352688796339" lon="18.652960734106">
        <ele>8.2</ele>
        <time>2019-07-28T17:44:49Z</time>
      </trkpt>
      <trkpt lat="54.352348994113" lon="18.652738865213">
        <ele>10.4</ele>
        <time>2019-07-28T17:46:26Z</time>
      </trkpt>
      <trkpt lat="54.351925205249" lon="18.652831652846">
        <ele>4.8</ele>
        <time>2019-07-28T17:47:51Z</time>
      </trkpt>
      <trkpt lat="54.351640555925" lon="18.653393910698">
        <ele>8.2</ele>
        <time>2019-07-28T17:49:09Z</time>
      </trkpt>
      <trkpt lat="54.351291282152" lon="18.653818453933">
        <ele>7.2</ele>
        <time>2019-07-28T17:51:02Z</time>
      </trkpt>
      <trkpt lat="54.350975116884" lon="18.653929095013">
        <ele>8</ele>
        <time>2019-07-28T17:53:31Z</time>
      </trkpt>
      <trkpt lat="54.350549819278" lon="18.6536753749">
        <ele>39</ele>
        <time>2019-07-28T17:54:42Z</time>
      </trkpt>
      <trkpt lat="54.350375894853" lon="18.653562303069">
        <ele>0</ele>
        <time>2019-07-28T17:56:40Z</time>
      </trkpt>
      <trkpt lat="54.350348988954" lon="18.654232184517">
        <ele>10.2</ele>
        <time>2019-07-28T17:58:26Z</time>
      </trkpt>
      <trkpt lat="54.350203562989" lon="18.654722944762">
        <ele>2.2</ele>
        <time>2019-07-28T18:01:24Z</time>
      </trkpt>
      <trkpt lat="54.350144219137" lon="18.655484859472">
        <ele>9.8</ele>
        <time>2019-07-28T18:02:45Z</time>
      </trkpt>
      <trkpt lat="54.350026956356" lon="18.656170917987">
        <ele>0</ele>
        <time>2019-07-28T18:04:17Z</time>
      </trkpt>
      <trkpt lat="54.349901982227" lon="18.656902238762">
        <ele>13.6</ele>
        <time>2019-07-28T18:05:32Z</time>
      </trkpt>
      <trkpt lat="54.349873148491" lon="18.657067697468">
        <ele>12.6</ele>
        <time>2019-07-28T18:05:43Z</time>
      </trkpt>
      <trkpt lat="54.349664690638" lon="18.657093597539">
        <ele>4</ele>
        <time>2019-07-28T18:06:25Z</time>
      </trkpt>
      <trkpt lat="54.349260263963" lon="18.656795369537">
        <ele>0</ele>
        <time>2019-07-28T18:07:36Z</time>
      </trkpt>
      <trkpt lat="54.349103187157" lon="18.656621277474">
        <ele>2.2</ele>
        <time>2019-07-28T18:08:00Z</time>
      </trkpt>
      <trkpt lat="54.348937225537" lon="18.656479623364">
        <ele>3.8</ele>
        <time>2019-07-28T18:08:31Z</time>
      </trkpt>
      <trkpt lat="54.348480244349" lon="18.656471409102">
        <ele>2.6</ele>
        <time>2019-07-28T18:09:39Z</time>
      </trkpt>
      <trkpt lat="54.348384103956" lon="18.656372251225">
        <ele>10</ele>
        <time>2019-07-28T18:10:05Z</time>
      </trkpt>
      <trkpt lat="54.348364322672" lon="18.656281810524">
        <ele>9</ele>
        <time>2019-07-28T18:10:10Z</time>
      </trkpt>
      <trkpt lat="54.348393994598" lon="18.656165302114">
        <ele>0</ele>
        <time>2019-07-28T18:11:24Z</time>
      </trkpt>
      <trkpt lat="54.34809543132" lon="18.656507367453">
        <ele>14.2</ele>
        <time>2019-07-28T18:12:06Z</time>
      </trkpt>
      <trkpt lat="54.347785133382" lon="18.656317014504">
        <ele>48.6</ele>
        <time>2019-07-28T18:13:33Z</time>
      </trkpt>
      <trkpt lat="54.347671726275" lon="18.655869001949">
        <ele>28.6</ele>
        <time>2019-07-28T18:14:11Z</time>
      </trkpt>
      <trkpt lat="54.347596959727" lon="18.65545401408">
        <ele>0</ele>
        <time>2019-07-28T18:16:08Z</time>
      </trkpt>
      <trkpt lat="54.347598971383" lon="18.655481925807">
        <ele>0</ele>
        <time>2019-07-28T18:19:07Z</time>
      </trkpt>
      <trkpt lat="54.347608023835" lon="18.655484859472">
        <ele>0</ele>
        <time>2019-07-28T18:19:08Z</time>
      </trkpt>
      <trkpt lat="54.347629984413" lon="18.655489637155">
        <ele>0</ele>
        <time>2019-07-28T18:19:10Z</time>
      </trkpt>
      <trkpt lat="54.347738949113" lon="18.655621484442">
        <ele>0</ele>
        <time>2019-07-28T18:19:24Z</time>
      </trkpt>
      <trkpt lat="54.347788569961" lon="18.656134121446">
        <ele>0</ele>
        <time>2019-07-28T18:20:10Z</time>
      </trkpt>
      <trkpt lat="54.34774590609" lon="18.656278625402">
        <ele>1.8</ele>
        <time>2019-07-28T18:20:16Z</time>
      </trkpt>
      <trkpt lat="54.347652950819" lon="18.656805092541">
        <ele>22</ele>
        <time>2019-07-28T18:20:48Z</time>
      </trkpt>
      <trkpt lat="54.347706259703" lon="18.656286839664">
        <ele>30.8</ele>
        <time>2019-07-28T19:25:57Z</time>
      </trkpt>
      <trkpt lat="54.34775261161" lon="18.656229423649">
        <ele>30.2</ele>
        <time>2019-07-28T19:26:08Z</time>
      </trkpt>
      <trkpt lat="54.347932487184" lon="18.655923484299">
        <ele>23</ele>
        <time>2019-07-28T19:27:52Z</time>
      </trkpt>
      <trkpt lat="54.348010187397" lon="18.655294841799">
        <ele>20.8</ele>
        <time>2019-07-28T19:28:36Z</time>
      </trkpt>
      <trkpt lat="54.348033656717" lon="18.65513634007">
        <ele>20.2</ele>
        <time>2019-07-28T19:28:48Z</time>
      </trkpt>
      <trkpt lat="54.348079170434" lon="18.654873399867">
        <ele>20.8</ele>
        <time>2019-07-28T19:29:09Z</time>
      </trkpt>
      <trkpt lat="54.34814404634" lon="18.654461178025">
        <ele>26.8</ele>
        <time>2019-07-28T19:30:37Z</time>
      </trkpt>
      <trkpt lat="54.348174388818" lon="18.654160770729">
        <ele>20.4</ele>
        <time>2019-07-28T19:31:27Z</time>
      </trkpt>
      <trkpt lat="54.348313863634" lon="18.653687863931">
        <ele>15.2</ele>
        <time>2019-07-28T19:33:03Z</time>
      </trkpt>
      <trkpt lat="54.34840304705" lon="18.653340517995">
        <ele>19.8</ele>
        <time>2019-07-28T19:33:45Z</time>
      </trkpt>
      <trkpt lat="54.348470856621" lon="18.653071626643">
        <ele>19.8</ele>
        <time>2019-07-28T19:35:29Z</time>
      </trkpt>
      <trkpt lat="54.34860085989" lon="18.652598636026">
        <ele>32</ele>
        <time>2019-07-28T19:37:38Z</time>
      </trkpt>
      <trkpt lat="54.348630028902" lon="18.652529485351">
        <ele>30.4</ele>
        <time>2019-07-28T19:37:44Z</time>
      </trkpt>
      <trkpt lat="54.348656934801" lon="18.652671474737">
        <ele>22.6</ele>
        <time>2019-07-28T19:40:13Z</time>
      </trkpt>
      <trkpt lat="54.348489632077" lon="18.653217471703">
        <ele>21.8</ele>
        <time>2019-07-28T19:41:50Z</time>
      </trkpt>
      <trkpt lat="54.348438083392" lon="18.653654503969">
        <ele>24.2</ele>
        <time>2019-07-28T19:42:47Z</time>
      </trkpt>
      <trkpt lat="54.348424923809" lon="18.653712506717">
        <ele>24</ele>
        <time>2019-07-28T19:42:51Z</time>
      </trkpt>
      <trkpt lat="54.34819601412" lon="18.654311477291">
        <ele>26.2</ele>
        <time>2019-07-28T19:44:07Z</time>
      </trkpt>
      <trkpt lat="54.348168856764" lon="18.65445656798">
        <ele>30.4</ele>
        <time>2019-07-28T19:44:20Z</time>
      </trkpt>
      <trkpt lat="54.348054862924" lon="18.655183027253">
        <ele>48.4</ele>
        <time>2019-07-28T19:45:29Z</time>
      </trkpt>
      <trkpt lat="54.347910275149" lon="18.655321077146">
        <ele>53.2</ele>
        <time>2019-07-28T19:45:52Z</time>
      </trkpt>
      <trkpt lat="54.347705840608" lon="18.655302217871">
        <ele>49.8</ele>
        <time>2019-07-28T19:46:28Z</time>
      </trkpt>
      <trkpt lat="54.347653537552" lon="18.65527967056">
        <ele>44.8</ele>
        <time>2019-07-28T19:46:32Z</time>
      </trkpt>
      <trkpt lat="54.347345083632" lon="18.655017903823">
        <ele>25.6</ele>
        <time>2019-07-28T19:47:26Z</time>
      </trkpt>
      <trkpt lat="54.347141822557" lon="18.654838698801">
        <ele>17.6</ele>
        <time>2019-07-28T19:47:57Z</time>
      </trkpt>
      <trkpt lat="54.347098152858" lon="18.654799220052">
        <ele>18</ele>
        <time>2019-07-28T19:48:03Z</time>
      </trkpt>
      <trkpt lat="54.346889611186" lon="18.654856216972">
        <ele>20.8</ele>
        <time>2019-07-28T19:48:41Z</time>
      </trkpt>
      <trkpt lat="54.346888772996" lon="18.655226529314">
        <ele>6.2</ele>
        <time>2019-07-28T19:49:05Z</time>
      </trkpt>
      <trkpt lat="54.346816437199" lon="18.655350749072">
        <ele>6.4</ele>
        <time>2019-07-28T19:49:18Z</time>
      </trkpt>
      <trkpt lat="54.346785424169" lon="18.655426521448">
        <ele>6.2</ele>
        <time>2019-07-28T19:49:24Z</time>
      </trkpt>
      <trkpt lat="54.346921043311" lon="18.6549578056">
        <ele>0</ele>
        <time>2019-07-28T19:50:43Z</time>
      </trkpt>
      <trkpt lat="54.346827668945" lon="18.654717999441">
        <ele>8.4</ele>
        <time>2019-07-28T19:51:15Z</time>
      </trkpt>
      <trkpt lat="54.346733204932" lon="18.654482384232">
        <ele>9.2</ele>
        <time>2019-07-28T19:51:44Z</time>
      </trkpt>
    </trkseg>
  </trk>
</gpx>